Time;durP1;ratioP1;P1;durP2;ratioP2;P2;SDS_P1;SDS_P2;PMS_P1;PMS_P2;Temp;Humidity;BMP_temperature;BMP_pressure;BME280_temperature;BME280_humidity;BME280_pressure;Samples;Min_cycle;Max_cycle;Signal;HPM_P1;HPM_P2
2021/09/14 00:02:01;;;;;;;;;;;;;;;22.20;50.70;101736.81;5039281;28;19913;-83
2021/09/14 00:04:26;;;;;;;;;;;;;;;21.72;51.85;101730.53;5039536;28;20371;-84
2021/09/14 00:06:52;;;;;;;;;;;;;;;22.06;50.61;101730.56;5040348;28;19960;-83
2021/09/14 00:09:17;;;;;;;;;;;;;;;20.67;54.78;101729.63;5039247;28;19917;-84
2021/09/14 00:11:42;;;;;;;;;;;;;;;20.45;56.17;101730.31;5038892;28;19924;-82
2021/09/14 00:14:07;;;;;;;;;;;;;;;21.10;54.29;101740.03;5038316;28;19921;-83
2021/09/14 00:16:33;;;;;;;;;;;;;;;20.58;55.05;101733.00;5038379;28;19925;-83
2021/09/14 00:18:58;;;;;;;;;;;;;;;;;;5038377;28;19928;-83
2021/09/14 00:21:24;;;;;;;;;;;;;;;22.16;49.78;101732.53;5042677;28;20028;-85
2021/09/14 00:23:49;;;;;;;;;;;;;;;22.29;48.86;101728.63;5042663;28;19921;-84
2021/09/14 00:26:14;;;;;;;;;;;;;;;22.37;48.17;101733.53;5039390;28;19917;-85
2021/09/14 00:28:40;;;;;;;;;;;;;;;22.46;48.16;101734.66;5037730;28;19921;-85
2021/09/14 00:31:05;;;;;;;;;;;;;;;22.67;47.75;101731.09;5038164;28;19917;-84
2021/09/14 00:33:30;;;;;;;;;;;;;;;22.70;47.45;101731.69;5038360;28;20382;-85
2021/09/14 00:35:55;;;;;;;;;;;;;;;22.53;47.95;101737.78;5038203;28;20385;-84
2021/09/14 00:38:20;;;;;;;;;;;;;;;22.85;46.82;101732.28;5038721;28;20004;-84
2021/09/14 00:40:46;;;;;;;;;;;;;;;22.53;47.54;101733.13;5037741;28;19924;-84
2021/09/14 00:43:21;;;;;;;;;;;;;;;22.63;47.87;101730.47;5037885;28;20574;-85
2021/09/14 00:45:46;;;;;;;;;;;;;;;22.68;48.00;101727.31;5038225;28;20334;-84
2021/09/14 00:48:11;;;;;;;;;;;;;;;21.73;51.39;101731.44;5037993;28;19948;-84
2021/09/14 00:50:37;;;;;;;;;;;;;;;22.11;51.07;101733.78;5039645;28;19917;-85
2021/09/14 00:53:03;;;;;;;;;;;;;;;21.62;52.92;101731.41;5040812;28;19917;-84
2021/09/14 00:55:29;;;;;;;;;;;;;;;21.22;54.24;101728.06;5039498;28;20275;-83
2021/09/14 00:57:54;;;;;;;;;;;;;;;22.02;51.40;101719.91;5039118;28;19924;-84
2021/09/14 01:00:20;;;;;;;;;;;;;;;22.02;52.07;101726.28;5038958;28;19917;-84
2021/09/14 01:02:47;;;;;;;;;;;;;;;22.08;51.56;101727.66;5036960;28;20004;-85
2021/09/14 01:05:12;;;;;;;;;;;;;;;21.32;53.96;101735.59;5037188;28;19917;-84
2021/09/14 01:07:37;;;;;;;;;;;;;;;21.01;55.08;101727.00;5037801;28;20023;-84
2021/09/14 01:10:03;;;;;;;;;;;;;;;21.05;55.06;101723.00;5037708;28;19944;-84
2021/09/14 01:12:29;;;;;;;;;;;;;;;21.63;53.46;101711.16;5036738;28;20469;-82
2021/09/14 01:14:55;;;;;;;;;;;;;;;21.01;54.89;101721.50;5038158;28;19968;-84
2021/09/14 01:17:20;;;;;;;;;;;;;;;21.57;52.98;101712.50;5039019;28;19925;-81
2021/09/14 01:19:47;;;;;;;;;;;;;;;22.04;51.09;101715.13;5042209;28;19917;-83
2021/09/14 01:22:13;;;;;;;;;;;;;;;20.57;56.52;101712.03;5042643;28;19917;-85
2021/09/14 01:24:39;;;;;;;;;;;;;;;20.75;55.80;101710.63;5042126;28;19917;-82
2021/09/14 01:27:04;;;;;;;;;;;;;;;21.11;54.86;101711.53;5042552;28;19999;-85
2021/09/14 01:32:13;;;;;;;;;;;;;;;20.89;54.48;101710.47;5042363;28;19944;-84
2021/09/14 01:34:38;;;;;;;;;;;;;;;21.00;55.13;101698.63;5041510;28;19921;-84
2021/09/14 01:37:06;;;;;;;;;;;;;;;21.32;54.07;101691.56;5041991;28;19917;-84
2021/09/14 01:39:31;;;;;;;;;;;;;;;21.04;54.52;101702.00;5041820;28;19917;-84
2021/09/14 01:41:56;;;;;;;;;;;;;;;21.02;55.17;101701.25;5044380;28;19918;-85
2021/09/14 01:44:21;;;;;;;;;;;;;;;21.25;53.69;101707.69;5042826;28;20297;-84
2021/09/14 01:46:48;;;;;;;;;;;;;;;20.12;57.53;101708.00;5024384;28;19927;-84
2021/09/14 01:49:14;;;;;;;;;;;;;;;21.52;52.61;101699.13;5041150;28;20345;-85
2021/09/14 01:51:40;;;;;;;;;;;;;;;21.52;52.65;101693.59;5040862;28;19917;-84
2021/09/14 01:54:06;;;;;;;;;;;;;;;21.73;52.37;101699.25;5039898;28;20357;-84
2021/09/14 01:56:31;;;;;;;;;;;;;;;21.61;51.61;101686.50;5041979;28;19917;-84
2021/09/14 01:58:56;;;;;;;;;;;;;;;21.80;51.91;101690.50;5043250;28;20278;-85
2021/09/14 02:01:29;;;;;;;;;;;;;;;21.22;53.38;101686.78;5042250;28;19924;-84
2021/09/14 03:00:09;;;;;;;;;;;;;;;21.20;53.60;101642.00;5042113;28;19924;-84
2021/09/14 03:02:35;;;;;;;;;;;;;;;20.44;56.49;101649.75;5039781;28;19984;-85
2021/09/14 03:05:00;;;;;;;;;;;;;;;20.06;58.07;101641.66;5039850;28;19917;-84
2021/09/14 03:07:25;;;;;;;;;;;;;;;20.27;57.10;101633.66;5039983;28;19924;-85
2021/09/14 03:09:50;;;;;;;;;;;;;;;20.05;57.72;101627.06;5041401;28;19917;-84
2021/09/14 03:12:15;;;;;;;;;;;;;;;19.90;58.75;101633.69;5040051;28;20295;-84
2021/09/14 03:14:44;;;;;;;;;;;;;;;20.01;57.33;101622.78;5039611;28;20290;-85
2021/09/14 03:17:09;;;;;;;;;;;;;;;20.33;55.77;101616.69;5040637;28;19936;-85
2021/09/14 03:19:34;;;;;;;;;;;;;;;20.57;54.75;101608.44;5039454;28;19905;-85
2021/09/14 03:21:59;;;;;;;;;;;;;;;20.87;55.17;101599.66;5039294;28;19961;-84
2021/09/14 03:24:25;;;;;;;;;;;;;;;20.37;55.98;101612.72;5039065;28;19920;-82
2021/09/14 03:26:52;;;;;;;;;;;;;;;19.93;57.80;101597.75;5041139;28;19933;-85
2021/09/14 03:29:18;;;;;;;;;;;;;;;20.82;54.83;101601.91;5041629;28;19924;-85
2021/09/14 03:31:44;;;;;;;;;;;;;;;20.47;56.38;101597.28;5040909;28;19917;-83
2021/09/14 03:34:09;;;;;;;;;;;;;;;21.20;53.52;101589.72;5041089;28;19924;-84
2021/09/14 03:36:34;;;;;;;;;;;;;;;20.56;55.10;101592.91;5040777;28;19917;-85
2021/09/14 03:39:00;;;;;;;;;;;;;;;20.56;54.13;101592.06;5041149;28;19916;-83
2021/09/14 03:41:25;;;;;;;;;;;;;;;20.41;55.72;101592.28;5040795;28;19952;-82
2021/09/14 03:43:50;;;;;;;;;;;;;;;20.17;56.00;101598.66;5040882;28;19921;-84
2021/09/14 03:46:15;;;;;;;;;;;;;;;21.02;53.82;101593.97;5042303;28;19921;-85
2021/09/14 03:48:40;;;;;;;;;;;;;;;20.50;55.58;101590.66;5041610;28;20290;-83
2021/09/14 03:51:06;;;;;;;;;;;;;;;21.05;53.00;101593.72;5041222;28;19917;-83
2021/09/14 03:53:31;;;;;;;;;;;;;;;20.29;55.52;101590.44;5042679;28;19905;-83
2021/09/14 03:55:56;;;;;;;;;;;;;;;20.51;55.33;101590.53;5040661;28;19917;-84
2021/09/14 03:58:21;;;;;;;;;;;;;;;19.86;56.64;101585.50;5041709;28;19917;-83
2021/09/14 04:00:51;;;;;;;;;;;;;;;19.79;57.17;101583.22;5042434;28;19917;-84
2021/09/14 04:03:20;;;;;;;;;;;;;;;20.67;54.68;101576.50;5040654;28;19917;-83
2021/09/14 04:06:09;;;;;;;;;;;;;;;19.70;57.39;101581.13;5041636;28;19924;-84
2021/09/14 04:08:52;;;;;;;;;;;;;;;20.56;54.67;101573.69;5042735;28;19917;-85
2021/09/14 04:11:18;;;;;;;;;;;;;;;20.67;54.78;101572.88;5041561;28;19917;-84
2021/09/14 04:13:44;;;;;;;;;;;;;;;20.35;55.54;101579.88;5044037;28;19944;-84
2021/09/14 04:16:11;;;;;;;;;;;;;;;21.14;52.92;101575.59;5041531;28;19929;-84
2021/09/14 04:18:36;;;;;;;;;;;;;;;20.57;54.37;101580.94;5042862;28;20286;-85
2021/09/14 04:21:01;;;;;;;;;;;;;;;20.79;53.02;101577.41;5041707;28;19917;-83
2021/09/14 04:23:26;;;;;;;;;;;;;;;20.00;56.37;101583.47;5041095;28;19918;-84
2021/09/14 04:25:51;;;;;;;;;;;;;;;20.31;54.65;101581.09;5041348;28;19929;-83
2021/09/14 04:28:17;;;;;;;;;;;;;;;21.00;52.85;101582.19;5040330;28;20378;-82
2021/09/14 04:30:42;;;;;;;;;;;;;;;20.99;52.61;101586.81;5038706;28;19924;-83
2021/09/14 04:33:08;;;;;;;;;;;;;;;20.99;52.30;101580.44;5040051;28;19967;-81
2021/09/14 04:35:34;;;;;;;;;;;;;;;21.25;51.26;101576.44;5038863;28;20318;-82
2021/09/14 04:37:59;;;;;;;;;;;;;;;21.18;51.73;101582.56;5040625;28;19931;-84
2021/09/14 04:40:24;;;;;;;;;;;;;;;21.14;50.84;101573.69;5040149;28;19967;-83
2021/09/14 04:42:49;;;;;;;;;;;;;;;20.88;52.21;101575.81;5040675;28;19914;-83
2021/09/14 04:45:16;;;;;;;;;;;;;;;20.47;53.85;101580.78;5041616;28;20385;-85
2021/09/14 04:47:41;;;;;;;;;;;;;;;21.19;51.40;101567.81;5041344;28;19928;-84
2021/09/14 04:50:09;;;;;;;;;;;;;;;20.42;53.30;101572.00;5042107;28;19921;-84
2021/09/14 04:52:34;;;;;;;;;;;;;;;20.66;53.18;101563.75;5041832;28;20371;-83
2021/09/14 04:55:00;;;;;;;;;;;;;;;20.86;52.44;101570.44;5040241;28;19962;-84
2021/09/14 04:57:25;;;;;;;;;;;;;;;21.42;50.68;101571.44;5040648;28;19917;-84
2021/09/14 04:59:50;;;;;;;;;;;;;;;21.16;51.47;101577.19;5041477;28;19917;-84
2021/09/14 05:02:15;;;;;;;;;;;;;;;21.08;51.60;101574.19;5040202;28;20363;-84
2021/09/14 05:04:41;;;;;;;;;;;;;;;20.81;52.77;101569.91;5043410;28;19922;-84
2021/09/14 05:07:06;;;;;;;;;;;;;;;21.50;50.03;101568.97;5041808;28;19956;-84
2021/09/14 05:09:31;;;;;;;;;;;;;;;21.30;50.69;101566.94;5041241;28;19917;-85
2021/09/14 05:11:59;;;;;;;;;;;;;;;21.32;50.67;101570.47;5037987;28;19917;-85
2021/09/14 05:14:26;;;;;;;;;;;;;;;20.49;53.11;101573.28;5036960;28;20683;-84
2021/09/14 05:16:51;;;;;;;;;;;;;;;21.01;51.33;101582.06;5033685;28;19979;-83
2021/09/14 05:19:23;;;;;;;;;;;;;;;21.28;50.51;101575.31;5032533;28;20334;-84
2021/09/14 05:21:51;;;;;;;;;;;;;;;21.52;50.16;101586.22;5032990;28;20019;-83
2021/09/14 05:24:16;;;;;;;;;;;;;;;21.22;51.04;101584.09;5031625;28;19956;-83
2021/09/14 05:26:41;;;;;;;;;;;;;;;20.65;52.62;101577.59;5035479;28;19988;-85
2021/09/14 05:29:10;;;;;;;;;;;;;;;21.19;51.08;101574.19;5034971;28;20295;-83
2021/09/14 05:31:35;;;;;;;;;;;;;;;21.11;50.63;101579.47;5033590;28;19916;-83
2021/09/14 05:34:00;;;;;;;;;;;;;;;21.36;50.63;101566.44;5033831;28;19958;-86
2021/09/14 05:36:26;;;;;;;;;;;;;;;20.70;52.11;101561.66;5034922;28;20306;-84
2021/09/14 05:38:51;;;;;;;;;;;;;;;20.40;53.00;101562.16;5033570;28;20016;-85
2021/09/14 05:41:16;;;;;;;;;;;;;;;20.32;53.79;101559.97;5034587;28;19917;-85
2021/09/14 05:43:41;;;;;;;;;;;;;;;20.45;53.62;101551.66;5034041;28;20366;-85
2021/09/14 05:46:07;;;;;;;;;;;;;;;19.09;58.94;101554.44;5033372;28;19967;-84
2021/09/14 05:48:32;;;;;;;;;;;;;;;20.31;54.67;101541.75;5034893;28;19925;-86
2021/09/14 05:50:57;;;;;;;;;;;;;;;19.84;56.43;101536.19;5035690;28;19924;-87
2021/09/14 05:53:22;;;;;;;;;;;;;;;19.72;56.73;101546.19;5035193;28;19924;-89
2021/09/14 05:55:48;;;;;;;;;;;;;;;20.59;53.78;101539.56;5033923;28;19925;-88
2021/09/14 05:58:13;;;;;;;;;;;;;;;20.06;55.45;101549.13;5035798;28;19924;-86
2021/09/14 06:00:38;;;;;;;;;;;;;;;21.52;50.63;101533.91;5036616;28;19943;-87
2021/09/14 06:03:04;;;;;;;;;;;;;;;21.40;51.10;101534.91;5035307;28;20425;-87
2021/09/14 06:05:29;;;;;;;;;;;;;;;21.03;51.34;101532.41;5038543;28;19976;-85
2021/09/14 06:07:54;;;;;;;;;;;;;;;21.81;49.96;101538.88;5041011;28;20007;-86
2021/09/14 06:10:20;;;;;;;;;;;;;;;21.93;49.58;101531.44;5040432;28;20282;-88
2021/09/14 06:12:49;;;;;;;;;;;;;;;20.95;52.03;101530.28;5040961;28;19917;-87
2021/09/14 06:15:14;;;;;;;;;;;;;;;21.38;51.03;101532.28;5041566;28;20011;-89
2021/09/14 06:17:40;;;;;;;;;;;;;;;21.29;51.23;101530.31;5041458;28;19971;-86
2021/09/14 06:20:06;;;;;;;;;;;;;;;21.68;50.44;101535.38;5041129;28;20080;-86
2021/09/14 06:22:31;;;;;;;;;;;;;;;21.13;51.34;101533.41;5040851;28;20393;-87
2021/09/14 06:24:57;;;;;;;;;;;;;;;20.36;54.52;101539.50;5041871;28;19917;-87
2021/09/14 06:27:22;;;;;;;;;;;;;;;20.30;55.46;101537.25;5039852;28;19948;-87
2021/09/14 06:29:47;;;;;;;;;;;;;;;19.68;56.99;101544.66;5038605;28;20290;-87
2021/09/14 06:32:13;;;;;;;;;;;;;;;20.84;54.24;101538.53;5040125;28;19975;-88
2021/09/14 06:34:38;;;;;;;;;;;;;;;20.93;52.81;101539.69;5038670;28;19933;-87
2021/09/14 06:37:04;;;;;;;;;;;;;;;20.24;55.96;101538.59;5039737;28;19920;-87
2021/09/14 06:39:29;;;;;;;;;;;;;;;21.19;52.51;101543.94;5040835;28;19921;-87
2021/09/14 06:41:55;;;;;;;;;;;;;;;21.59;51.41;101537.06;5038746;28;20004;-88
2021/09/14 06:44:20;;;;;;;;;;;;;;;21.35;52.24;101545.44;5038550;28;19917;-87
2021/09/14 06:46:47;;;;;;;;;;;;;;;22.03;50.12;101545.31;5037339;28;19928;-87
2021/09/14 06:49:13;;;;;;;;;;;;;;;21.97;50.33;101543.06;5021639;28;19925;-86
2021/09/14 06:51:38;;;;;;;;;;;;;;;22.09;50.14;101548.41;5039062;28;19971;-87
2021/09/14 06:54:03;;;;;;;;;;;;;;;21.48;52.65;101542.53;5037026;28;20371;-87
2021/09/14 06:56:28;;;;;;;;;;;;;;;21.47;52.59;101544.44;5038785;28;19972;-88
2021/09/14 06:58:54;;;;;;;;;;;;;;;21.42;52.76;101532.91;5038643;28;19920;-87
2021/09/14 07:01:20;;;;;;;;;;;;;;;21.95;51.31;101535.84;5038415;28;19921;-86
2021/09/14 07:03:45;;;;;;;;;;;;;;;21.15;53.23;101542.44;5036624;28;19917;-90
2021/09/14 07:06:11;;;;;;;;;;;;;;;21.23;53.86;101539.94;5043561;28;20126;-84
2021/09/14 07:08:36;;;;;;;;;;;;;;;20.96;55.21;101542.19;5059066;28;19921;-86
2021/09/14 07:11:01;;;;;;;;;;;;;;;21.09;54.97;101531.03;5058383;28;19920;-88
2021/09/14 07:13:26;;;;;;;;;;;;;;;22.33;50.48;101524.41;5058184;28;19901;-88
2021/09/14 07:15:52;;;;;;;;;;;;;;;22.23;51.06;101522.44;5057772;28;19931;-87
2021/09/14 07:18:17;;;;;;;;;;;;;;;22.22;50.97;101528.97;5056810;28;20012;-87
2021/09/14 07:20:42;;;;;;;;;;;;;;;21.69;52.91;101528.88;5057270;28;19939;-85
2021/09/14 07:23:07;;;;;;;;;;;;;;;22.16;51.65;101523.94;5059382;28;19916;-86
2021/09/14 07:25:38;;;;;;;;;;;;;;;21.41;53.71;101531.16;5058254;28;19917;-88
2021/09/14 07:28:04;;;;;;;;;;;;;;;21.32;54.13;101529.19;5060575;28;19921;-88
2021/09/14 07:30:29;;;;;;;;;;;;;;;21.83;52.68;101514.84;5061106;28;19970;-88
2021/09/14 07:32:55;;;;;;;;;;;;;;;21.13;55.67;101514.16;5061188;28;20023;-88
2021/09/14 07:35:23;;;;;;;;;;;;;;;21.32;55.08;101499.78;5060588;28;19921;-92
2021/09/14 07:37:49;;;;;;;;;;;;;;;21.84;53.14;101499.19;5059452;28;19962;-89
2021/09/14 07:40:14;;;;;;;;;;;;;;;22.02;51.54;101493.97;5059761;28;19917;-89
2021/09/14 07:42:39;;;;;;;;;;;;;;;21.75;52.61;101503.59;5060757;28;19924;-90
2021/09/14 07:45:05;;;;;;;;;;;;;;;23.56;48.23;101499.63;5060656;28;19923;-88
2021/09/14 07:47:30;;;;;;;;;;;;;;;22.64;50.68;101504.16;5060830;28;19924;-90
2021/09/14 07:49:55;;;;;;;;;;;;;;;23.69;47.86;101505.78;5060292;28;19928;-89
2021/09/14 07:52:21;;;;;;;;;;;;;;;25.00;44.19;101510.94;5059337;28;19932;-87
2021/09/14 07:54:46;;;;;;;;;;;;;;;23.95;46.82;101515.44;5058767;28;20340;-90
2021/09/14 07:57:11;;;;;;;;;;;;;;;23.41;48.40;101517.63;5059484;28;19975;-90
2021/09/14 07:59:36;;;;;;;;;;;;;;;23.05;49.32;101514.41;5059109;28;20427;-92
2021/09/14 08:02:03;;;;;;;;;;;;;;;23.80;46.91;101517.72;5059436;28;19966;-90
2021/09/14 08:04:28;;;;;;;;;;;;;;;24.09;46.36;101506.69;5059349;28;19963;-89
2021/09/14 08:06:53;;;;;;;;;;;;;;;25.33;43.96;101505.88;5059391;28;20385;-90
2021/09/14 08:09:20;;;;;;;;;;;;;;;24.64;45.19;101505.22;5058691;28;20015;-91
2021/09/14 08:11:45;;;;;;;;;;;;;;;25.99;42.24;101507.50;5057826;28;19924;-87
2021/09/14 08:14:10;;;;;;;;;;;;;;;25.61;42.90;101507.59;5058396;28;19925;-90
2021/09/14 08:16:36;;;;;;;;;;;;;;;25.83;42.27;101511.84;5058789;28;19925;-87
2021/09/14 08:19:01;;;;;;;;;;;;;;;24.75;44.93;101514.22;5058808;28;19959;-88
2021/09/14 08:21:26;;;;;;;;;;;;;;;25.18;44.03;101508.25;5058428;28;19912;-90
2021/09/14 08:23:52;;;;;;;;;;;;;;;24.85;44.82;101502.25;5058550;28;19935;-88
2021/09/14 08:26:17;;;;;;;;;;;;;;;24.46;46.17;101505.06;5056703;28;19917;-86
2021/09/14 08:28:43;;;;;;;;;;;;;;;26.06;41.82;101497.53;5057757;28;19920;-90
2021/09/14 08:31:10;;;;;;;;;;;;;;;25.62;43.60;101498.28;5058633;28;19917;-88
2021/09/14 08:33:36;;;;;;;;;;;;;;;25.16;43.58;101504.75;5058613;28;19924;-87
2021/09/14 08:36:01;;;;;;;;;;;;;;;25.51;42.92;101501.25;5056682;28;19917;-87
2021/09/14 08:38:27;;;;;;;;;;;;;;;26.03;42.39;101511.72;5057403;28;19901;-86
2021/09/14 08:40:53;;;;;;;;;;;;;;;26.71;40.98;101513.00;5056727;28;19921;-86
2021/09/14 08:43:18;;;;;;;;;;;;;;;25.93;42.63;101516.44;5057900;28;19923;-87
2021/09/14 08:45:44;;;;;;;;;;;;;;;25.43;43.33;101504.78;5057615;28;19923;-86
2021/09/14 08:48:09;;;;;;;;;;;;;;;24.86;45.07;101515.06;5057076;28;19925;-85
2021/09/14 08:50:35;;;;;;;;;;;;;;;26.17;41.81;101513.91;5058785;28;20011;-86
2021/09/14 08:53:03;;;;;;;;;;;;;;;25.81;42.67;101516.63;5058276;28;20003;-86
2021/09/14 08:55:28;;;;;;;;;;;;;;;25.60;43.02;101518.84;5058092;28;19917;-86
2021/09/14 08:57:54;;;;;;;;;;;;;;;26.47;41.00;101519.22;5058386;28;19919;-86
2021/09/14 09:00:29;;;;;;;;;;;;;;;25.49;43.93;101524.59;5055985;28;20012;-84
2021/09/14 09:02:54;;;;;;;;;;;;;;;25.51;43.89;101514.22;5056389;28;19917;-87
2021/09/14 09:05:28;;;;;;;;;;;;;;;26.14;42.17;101511.47;5056665;28;20369;-87
2021/09/14 09:07:53;;;;;;;;;;;;;;;26.11;42.01;101509.00;5057169;28;19921;-86
2021/09/14 09:10:18;;;;;;;;;;;;;;;25.36;44.01;101517.50;5056322;28;19928;-89
2021/09/14 09:12:47;;;;;;;;;;;;;;;25.94;42.81;101515.41;5056940;28;20318;-86
2021/09/14 09:15:22;;;;;;;;;;;;;;;26.80;41.10;101503.69;5057000;28;19920;-90
2021/09/14 09:17:58;;;;;;;;;;;;;;;28.18;38.72;101511.00;5056160;28;19925;-87
2021/09/14 09:20:23;;;;;;;;;;;;;;;27.74;38.93;101514.91;5055246;28;20199;-85
2021/09/14 09:22:55;;;;;;;;;;;;;;;27.42;40.07;101519.31;5055391;28;20421;-85
2021/09/14 09:25:24;;;;;;;;;;;;;;;28.19;37.72;101516.38;5054139;28;19917;-86
2021/09/14 09:27:50;;;;;;;;;;;;;;;26.99;40.70;101508.13;5053984;28;19921;-86
2021/09/14 09:30:18;;;;;;;;;;;;;;;27.38;40.12;101501.22;5055549;28;19984;-89
2021/09/14 09:32:43;;;;;;;;;;;;;;;27.15;40.18;101482.34;5056336;28;19952;-88
2021/09/14 09:35:09;;;;;;;;;;;;;;;27.48;39.89;101479.72;5045257;28;19936;-86
2021/09/14 09:37:35;;;;;;;;;;;;;;;27.24;40.71;101481.34;5045958;28;19925;-88
2021/09/14 09:40:00;;;;;;;;;;;;;;;27.87;38.96;101479.13;5046627;28;19917;-87
2021/09/14 09:42:29;;;;;;;;;;;;;;;28.68;37.72;101476.53;5040602;28;19948;-86
2021/09/14 09:44:58;;;;;;;;;;;;;;;29.39;36.73;101478.59;5038220;28;20339;-85
2021/09/14 09:47:24;;;;;;;;;;;;;;;28.25;38.15;101485.09;5043220;28;19924;-85
2021/09/14 09:49:49;;;;;;;;;;;;;;;27.01;41.21;101488.50;5059444;28;19927;-85
2021/09/14 09:52:15;;;;;;;;;;;;;;;28.20;38.95;101487.53;5059218;28;19921;-85
2021/09/14 09:54:40;;;;;;;;;;;;;;;27.79;39.55;101483.81;5059172;28;20370;-85
2021/09/14 09:57:08;;;;;;;;;;;;;;;26.91;41.23;101485.00;5058818;28;19920;-85
2021/09/14 09:59:34;;;;;;;;;;;;;;;27.69;39.28;101481.16;5060950;28;20336;-85
2021/09/14 10:02:04;;;;;;;;;;;;;;;28.11;38.68;101485.75;5060205;28;19973;-85
2021/09/14 10:04:30;;;;;;;;;;;;;;;28.39;38.40;101482.66;5059083;28;19917;-85
2021/09/14 10:06:57;;;;;;;;;;;;;;;27.02;41.40;101473.59;5058966;28;19920;-85
2021/09/14 10:09:31;;;;;;;;;;;;;;;28.35;38.96;101472.91;5059765;28;19917;-84
2021/09/14 10:11:57;;;;;;;;;;;;;;;28.74;37.65;101464.69;5058477;28;19917;-84
2021/09/14 10:14:23;;;;;;;;;;;;;;;29.78;36.22;101463.72;5060725;28;20275;-83
2021/09/14 10:16:49;;;;;;;;;;;;;;;29.21;36.47;101463.00;5059809;28;19972;-85
2021/09/14 10:19:31;;;;;;;;;;;;;;;28.79;37.38;101464.16;5059836;28;20430;-85
2021/09/14 10:22:03;;;;;;;;;;;;;;;28.84;37.30;101456.16;5061264;28;20370;-85
2021/09/14 10:24:28;;;;;;;;;;;;;;;27.77;38.85;101481.19;5060101;28;19917;-85
2021/09/14 10:27:03;;;;;;;;;;;;;;;28.93;37.50;101463.44;5060168;28;20277;-85
2021/09/14 10:29:31;;;;;;;;;;;;;;;27.49;40.45;101467.59;5058347;28;19962;-84
2021/09/14 10:32:14;;;;;;;;;;;;;;;28.92;38.11;101463.59;5058537;28;19917;-87
2021/09/14 10:34:55;;;;;;;;;;;;;;;29.85;36.15;101461.97;5057980;28;19983;-86
2021/09/14 10:37:21;;;;;;;;;;;;;;;28.94;37.46;101467.97;5058886;28;19957;-85
2021/09/14 10:39:46;;;;;;;;;;;;;;;29.07;36.97;101456.22;5060325;28;19917;-85
2021/09/14 10:42:15;;;;;;;;;;;;;;;29.67;35.67;101453.88;5060323;28;19917;-89
2021/09/14 10:44:41;;;;;;;;;;;;;;;29.69;36.10;101449.81;5061285;28;19917;-85
2021/09/14 10:47:11;;;;;;;;;;;;;;;29.75;35.36;101447.38;5059233;28;19931;-85
2021/09/14 10:49:43;;;;;;;;;;;;;;;29.87;34.80;101448.69;5059648;28;19916;-84
2021/09/14 10:52:08;;;;;;;;;;;;;;;29.41;34.95;101441.13;5057912;28;19940;-83
2021/09/14 10:54:43;;;;;;;;;;;;;;;29.62;34.93;101431.22;5058914;28;19923;-86
2021/09/14 10:57:11;;;;;;;;;;;;;;;30.86;33.17;101429.09;5060125;28;19917;-86
2021/09/14 10:59:37;;;;;;;;;;;;;;;30.87;33.02;101427.16;5058852;28;19917;-85
2021/09/14 11:02:03;;;;;;;;;;;;;;;31.17;32.21;101435.56;5060282;28;20019;-87
2021/09/14 11:04:28;;;;;;;;;;;;;;;30.49;33.98;101438.41;5062852;28;19917;-86
2021/09/14 11:06:54;;;;;;;;;;;;;;;29.47;34.47;101425.56;5059986;28;19923;-87
2021/09/14 11:09:19;;;;;;;;;;;;;;;28.67;35.96;101419.13;5059855;28;20007;-83
2021/09/14 11:11:49;;;;;;;;;;;;;;;28.97;36.10;101417.47;5060181;28;19917;-86
2021/09/14 11:14:14;;;;;;;;;;;;;;;29.64;35.30;101396.53;5060420;28;19987;-86
2021/09/14 11:16:39;;;;;;;;;;;;;;;28.88;35.73;101410.19;5043798;28;20374;-84
2021/09/14 11:19:05;;;;;;;;;;;;;;;29.27;35.11;101406.53;5058707;28;19917;-85
2021/09/14 11:21:30;;;;;;;;;;;;;;;30.66;33.86;101398.06;5060019;28;19923;-86
2021/09/14 11:23:55;;;;;;;;;;;;;;;29.79;34.71;101401.31;5058080;28;20328;-85
2021/09/14 11:26:20;;;;;;;;;;;;;;;30.47;34.05;101401.41;5057915;28;19916;-85
2021/09/14 11:28:54;;;;;;;;;;;;;;;30.97;33.20;101391.41;5060096;28;19916;-86
2021/09/14 11:31:19;;;;;;;;;;;;;;;29.81;34.76;101394.53;5059072;28;19997;-85
2021/09/14 11:33:44;;;;;;;;;;;;;;;30.56;34.01;101394.72;5058383;28;19955;-85
2021/09/14 11:36:10;;;;;;;;;;;;;;;30.40;33.85;101402.19;5058721;28;20016;-85
2021/09/14 11:38:37;;;;;;;;;;;;;;;30.11;34.47;101399.34;5059173;28;19975;-84
2021/09/14 11:41:03;;;;;;;;;;;;;;;30.53;33.79;101389.50;5058524;28;19920;-85
2021/09/14 11:43:35;;;;;;;;;;;;;;;30.55;33.89;101388.25;5038511;28;19917;-85
2021/09/14 11:46:10;;;;;;;;;;;;;;;31.41;32.97;101395.19;5035931;28;19925;-85
2021/09/14 11:48:35;;;;;;;;;;;;;;;31.52;32.49;101388.22;5036618;28;19917;-86
2021/09/14 11:51:05;;;;;;;;;;;;;;;30.75;33.46;101379.28;5036142;28;19963;-87
2021/09/14 11:53:31;;;;;;;;;;;;;;;31.31;32.83;101375.94;5035870;28;19960;-85
2021/09/14 11:55:56;;;;;;;;;;;;;;;30.61;33.75;101369.84;5036507;28;19979;-85
2021/09/14 11:58:32;;;;;;;;;;;;;;;30.30;34.51;101376.47;5036500;28;19917;-87
2021/09/14 12:01:01;;;;;;;;;;;;;;;31.31;32.46;101383.47;5036638;28;19917;-85
2021/09/14 12:03:37;;;;;;;;;;;;;;;30.84;33.73;101368.88;5036755;28;19963;-83
2021/09/14 12:06:03;;;;;;;;;;;;;;;31.12;33.74;101370.97;5036323;28;19905;-86
2021/09/14 12:08:30;;;;;;;;;;;;;;;31.31;33.05;101358.31;5036310;28;20371;-85
2021/09/14 12:10:56;;;;;;;;;;;;;;;30.97;33.26;101359.81;5036236;28;19944;-85
2021/09/14 12:13:21;;;;;;;;;;;;;;;32.53;31.54;101362.00;5035365;28;19940;-86
2021/09/14 12:15:47;;;;;;;;;;;;;;;32.73;31.22;101359.31;5036596;28;19967;-85
2021/09/14 12:18:15;;;;;;;;;;;;;;;31.71;32.45;101368.00;5036958;28;19921;-86
2021/09/14 12:20:40;;;;;;;;;;;;;;;32.14;31.83;101355.91;5038112;28;19947;-85
2021/09/14 12:23:05;;;;;;;;;;;;;;;32.59;30.96;101349.97;5037344;28;19916;-85
2021/09/14 12:25:31;;;;;;;;;;;;;;;32.89;30.53;101355.31;5036487;28;19917;-85
2021/09/14 12:27:56;;;;;;;;;;;;;;;31.74;32.24;101356.41;5038235;28;19917;-84
2021/09/14 12:30:21;;;;;;;;;;;;;;;32.07;31.61;101357.75;5036405;28;19917;-84
2021/09/14 12:32:46;;;;;;;;;;;;;;;32.15;31.98;101354.84;5038062;28;20020;-81
2021/09/14 12:35:12;;;;;;;;;;;;;;;31.33;32.93;101357.06;5037343;28;19924;-85
2021/09/14 12:37:37;;;;;;;;;;;;;;;31.70;32.67;101355.06;5037280;28;19978;-86
2021/09/14 12:40:02;;;;;;;;;;;;;;;31.24;33.59;101359.09;5038435;28;20341;-85
2021/09/14 12:42:27;;;;;;;;;;;;;;;31.12;33.36;101359.78;5037408;28;20298;-83
2021/09/14 12:44:53;;;;;;;;;;;;;;;30.42;34.97;101342.50;5039732;28;19916;-84
2021/09/14 12:47:18;;;;;;;;;;;;;;;30.31;34.84;101352.19;5043070;28;19924;-86
2021/09/14 12:49:43;;;;;;;;;;;;;;;31.30;33.32;101357.44;5031106;28;19925;-88
2021/09/14 12:52:09;;;;;;;;;;;;;;;29.56;36.33;101353.91;5046801;28;19972;-86
2021/09/14 12:54:34;;;;;;;;;;;;;;;30.38;35.45;101347.59;5050583;28;19944;-82
2021/09/14 12:57:01;;;;;;;;;;;;;;;30.39;35.14;101350.19;5041286;28;19932;-83
2021/09/14 12:59:26;;;;;;;;;;;;;;;30.03;35.19;101347.28;5044973;28;19921;-82
2021/09/14 13:01:51;;;;;;;;;;;;;;;30.63;35.01;101350.97;5045514;28;20298;-82
2021/09/14 13:04:17;;;;;;;;;;;;;;;30.63;35.08;101337.00;5045319;28;20389;-83
2021/09/14 13:06:42;;;;;;;;;;;;;;;30.89;34.27;101344.00;5043364;28;20026;-84
2021/09/14 13:09:07;;;;;;;;;;;;;;;31.35;33.54;101346.53;5043365;28;19917;-83
2021/09/14 13:11:33;;;;;;;;;;;;;;;31.09;33.87;101342.38;5047936;28;19917;-82
2021/09/14 13:16:49;;;;;;;;;;;;;;;31.49;33.35;101339.13;5029897;28;19928;-84
2021/09/14 13:19:15;;;;;;;;;;;;;;;31.67;32.89;101340.63;5043609;28;20272;-85
2021/09/14 13:21:40;;;;;;;;;;;;;;;30.79;34.13;101344.31;5044970;28;20374;-82
2021/09/14 13:24:05;;;;;;;;;;;;;;;29.83;35.88;101346.91;5035943;28;21281;-82
2021/09/14 13:26:30;;;;;;;;;;;;;;;29.33;36.80;101351.97;5042945;28;20462;-83
2021/09/14 13:28:56;;;;;;;;;;;;;;;29.77;35.88;101342.91;5053799;28;20063;-82
2021/09/14 13:31:21;;;;;;;;;;;;;;;29.94;35.97;101345.59;5056086;28;19975;-83
2021/09/14 13:33:47;;;;;;;;;;;;;;;29.99;35.92;101337.53;5054956;28;19925;-84
2021/09/14 13:36:14;;;;;;;;;;;;;;;30.69;34.95;101338.16;5054392;28;19917;-83